Virtual United States Air Force

 METAR AND TAF INFORMATION
METAR FOR KLTS
ADDS - METARS form results

(1301 UTC 20 June 2018)
Data provider http://aviationweather.gov/adds/metars/
 
METAR text: KLTS 201256Z AUTO 02013KT 10SM -DZ SCT034 OVC043 20/16 A2999 RMK AO2 PK WND 02031/11 DZB18E30RAB30E40DZB40 SLP142 P0000 T02000164 $
Conditions at: KLTS (ALTUS AFB , OK, US) observed 1256 UTC 20 June 2018
Temperature: 20.0°C (68°F)
Dewpoint: 16.4°C (62°F) [RH = 80%]
Pressure (altimeter): 29.99 inches Hg (1015.7 mb)
[Sea-level pressure: 1014.2 mb]
Winds: from the NNE (20 degrees) at 15 MPH (13 knots; 6.8 m/s)
Visibility: 10 or more miles (16+ km)
Ceiling: 4300 feet AGL
Clouds: scattered clouds at 3400 feet AGL
overcast cloud deck at 4300 feet AGL
Weather: -DZ  (light drizzle)
SOME DATA ABOVE MAY BE INACCURATE!!!
"$" is an indication the sensor requires maintenance

METAR text: KLTS 201248Z AUTO 02012G22KT 10SM -DZ FEW025 BKN034 OVC041 20/17 A2999 RMK AO2 DZB18E30RAB30E40DZB40 SLP142 $
Conditions at: KLTS (ALTUS AFB , OK, US) observed 1248 UTC 20 June 2018
Temperature: 20.0°C (68°F)
Dewpoint: 17.0°C (63°F) [RH = 83%]
Pressure (altimeter): 29.99 inches Hg (1015.7 mb)
[Sea-level pressure: 1014.2 mb]
Winds: from the NNE (20 degrees) at 14 MPH (12 knots; 6.2 m/s)
gusting to 25 MPH (22 knots; 11.4 m/s)
Visibility: 10 or more miles (16+ km)
Ceiling: 3400 feet AGL
Clouds: few clouds at 2500 feet AGL
broken clouds at 3400 feet AGL
overcast cloud deck at 4100 feet AGL
Weather: -DZ  (light drizzle)
SOME DATA ABOVE MAY BE INACCURATE!!!
"$" is an indication the sensor requires maintenance

METAR text: KLTS 201243Z AUTO 02017G22KT 10SM -DZ FEW022 BKN028 OVC036 20/17 A2999 RMK AO2 DZB18E30RAB30E40DZB40 CIG 025 RWY35L SLP142 $
Conditions at: KLTS (ALTUS AFB , OK, US) observed 1243 UTC 20 June 2018
Temperature: 20.0°C (68°F)
Dewpoint: 17.0°C (63°F) [RH = 83%]
Pressure (altimeter): 29.99 inches Hg (1015.7 mb)
[Sea-level pressure: 1014.2 mb]
Winds: from the NNE (20 degrees) at 20 MPH (17 knots; 8.8 m/s)
gusting to 25 MPH (22 knots; 11.4 m/s)
Visibility: 10 or more miles (16+ km)
Ceiling: 2800 feet AGL
Clouds: few clouds at 2200 feet AGL
broken clouds at 2800 feet AGL
overcast cloud deck at 3600 feet AGL
Weather: -DZ  (light drizzle)
SOME DATA ABOVE MAY BE INACCURATE!!!
"$" is an indication the sensor requires maintenance

METAR text: KLTS 201238Z AUTO 03014KT 9SM -RA SCT021 OVC031 20/17 A2999 RMK AO2 DZB18E30RAB30 SLP142 $
Conditions at: KLTS (ALTUS AFB , OK, US) observed 1238 UTC 20 June 2018
Temperature: 20.0°C (68°F)
Dewpoint: 17.0°C (63°F) [RH = 83%]
Pressure (altimeter): 29.99 inches Hg (1015.7 mb)
[Sea-level pressure: 1014.2 mb]
Winds: from the NNE (30 degrees) at 16 MPH (14 knots; 7.3 m/s)
Visibility: 9 miles (14 km)
Ceiling: 3100 feet AGL
Clouds: scattered clouds at 2100 feet AGL
overcast cloud deck at 3100 feet AGL
Weather: -RA  (light rain)
SOME DATA ABOVE MAY BE INACCURATE!!!
"$" is an indication the sensor requires maintenance

METAR text: KLTS 201233Z AUTO 03015G23KT 9SM -RA SCT021 OVC029 21/17 A2999 RMK AO2 DZB18E30RAB30 CIG 023V029 CIG 023 RWY35L CIG 021 RWY35R PRESRR SLP141 $
Conditions at: KLTS (ALTUS AFB , OK, US) observed 1233 UTC 20 June 2018
Temperature: 21.0°C (70°F)
Dewpoint: 17.0°C (63°F) [RH = 78%]
Pressure (altimeter): 29.99 inches Hg (1015.7 mb)
[Sea-level pressure: 1014.1 mb]
Winds: from the NNE (30 degrees) at 17 MPH (15 knots; 7.8 m/s)
gusting to 26 MPH (23 knots; 12.0 m/s)
Visibility: 9 miles (14 km)
Ceiling: 2900 feet AGL
Clouds: scattered clouds at 2100 feet AGL
overcast cloud deck at 2900 feet AGL
Weather: -RA  (light rain)
SOME DATA ABOVE MAY BE INACCURATE!!!
"$" is an indication the sensor requires maintenance

METAR text: KLTS 201218Z AUTO 01021G27KT 10SM -DZ FEW015 BKN021 BKN038 OVC060 22/16 A2997 RMK AO2 DZB18 CIG 021V042 BKN021 V SCT CIG 019 RWY35R SLP133 $
Conditions at: KLTS (ALTUS AFB , OK, US) observed 1218 UTC 20 June 2018
Temperature: 22.0°C (72°F)
Dewpoint: 16.0°C (61°F) [RH = 69%]
Pressure (altimeter): 29.97 inches Hg (1015.0 mb)
[Sea-level pressure: 1013.3 mb]
Winds: from the N (10 degrees) at 24 MPH (21 knots; 10.9 m/s)
gusting to 31 MPH (27 knots; 14.0 m/s)
Visibility: 10 or more miles (16+ km)
Ceiling: 2100 feet AGL
Clouds: few clouds at 1500 feet AGL
broken clouds at 2100 feet AGL
broken clouds at 3800 feet AGL
overcast cloud deck at 6000 feet AGL
Weather: -DZ  (light drizzle)
SOME DATA ABOVE MAY BE INACCURATE!!!
"$" is an indication the sensor requires maintenance

METAR text: KLTS 201212Z AUTO 01021G27KT 10SM FEW015 BKN021 BKN040 OVC060 23/18 A2997 RMK AO2 CIG 021V042 BKN021 V SCT SLP133 $
Conditions at: KLTS (ALTUS AFB , OK, US) observed 1212 UTC 20 June 2018
Temperature: 23.0°C (73°F)
Dewpoint: 18.0°C (64°F) [RH = 73%]
Pressure (altimeter): 29.97 inches Hg (1015.0 mb)
[Sea-level pressure: 1013.3 mb]
Winds: from the N (10 degrees) at 24 MPH (21 knots; 10.9 m/s)
gusting to 31 MPH (27 knots; 14.0 m/s)
Visibility: 10 or more miles (16+ km)
Ceiling: 2100 feet AGL
Clouds: few clouds at 1500 feet AGL
broken clouds at 2100 feet AGL
broken clouds at 4000 feet AGL
overcast cloud deck at 6000 feet AGL
Weather:
SOME DATA ABOVE MAY BE INACCURATE!!!
"$" is an indication the sensor requires maintenance

METAR text: KLTS 201207Z AUTO 02019G26KT 10SM FEW013 SCT035 BKN042 BKN060 OVC095 23/20 A2997 RMK AO2 WSHFT 03 PRESRR SLP133 $
Conditions at: KLTS (ALTUS AFB , OK, US) observed 1207 UTC 20 June 2018
Temperature: 23.0°C (73°F)
Dewpoint: 20.0°C (68°F) [RH = 83%]
Pressure (altimeter): 29.97 inches Hg (1015.0 mb)
[Sea-level pressure: 1013.3 mb]
Winds: from the NNE (20 degrees) at 22 MPH (19 knots; 9.9 m/s)
gusting to 30 MPH (26 knots; 13.5 m/s)
Visibility: 10 or more miles (16+ km)
Ceiling: 4200 feet AGL
Clouds: few clouds at 1300 feet AGL
scattered clouds at 3500 feet AGL
broken clouds at 4200 feet AGL
broken clouds at 6000 feet AGL
Weather:
SOME DATA ABOVE MAY BE INACCURATE!!!
"$" is an indication the sensor requires maintenance

Forecast for: KLTS (ALTUS AFB , OK, US)
Text: TAF AMD KLTS 201100Z 2011/2115 07012KT 8000 -SHRA VCTS BKN030CB OVC075 QNH2981INS
Forecast period: 1100 to 1600 UTC 20 June 2018
Forecast type: FROM: standard forecast or significant change
Winds: from the ENE (70 degrees) at 14 MPH (12 knots; 6.2 m/s)
Visibility: 5 miles (8 km)
Ceiling: 3000 feet AGL
Clouds: broken clouds at 3000 feet AGL
overcast cloud deck at 7500 feet AGL
Weather: -SHRA VCTS  (light rain showers, thunderstorm in vicinity)
Text: TEMPO 2012/2015 04025G35KT 6000 -TSRA BKN015CB
Forecast period: 1200 to 1500 UTC 20 June 2018
Forecast type: TEMPORARY: The following changes expected for less than half the time period
Winds: from the NE (40 degrees) at 29 MPH (25 knots; 13.0 m/s)
gusting to 40 MPH (35 knots; 18.2 m/s)
Visibility: 4 miles (6 km)
Ceiling: 1500 feet AGL
Clouds: broken clouds at 1500 feet AGL
Weather: -TSRA  (light rain associated with thunderstorm(s))
Text: BECMG 2016/2017 05009KT 9999 NSW SCT030 SCT070 QNH2971INS
Forecast period: 1600 to 2200 UTC 20 June 2018
Forecast type: BECOMING: Conditions expected to become as follows by 1700 UTC 20 June 2018
Winds: from the NE (50 degrees) at 10 MPH (9 knots; 4.7 m/s)
Visibility: 6 or more miles (10+ km)
Clouds: scattered clouds at 3000 feet AGL
scattered clouds at 7000 feet AGL
Weather: NSW  (no significant weather)
Text: BECMG 2022/2023 35012KT 8000 -SHRA BKN050 QNH2973INS
Forecast period: 2200 UTC 20 June 2018 to 0500 UTC 21 June 2018
Forecast type: BECOMING: Conditions expected to become as follows by 2300 UTC 20 June 2018
Winds: from the N (350 degrees) at 14 MPH (12 knots; 6.2 m/s)
Visibility: 5 miles (8 km)
Ceiling: 5000 feet AGL
Clouds: broken clouds at 5000 feet AGL
Weather: -SHRA  (light rain showers)
Text: BECMG 2105/2106 36006KT 9999 NSW BKN030 QNH2986INS
Forecast period: 0500 to 1100 UTC 21 June 2018
Forecast type: BECOMING: Conditions expected to become as follows by 0600 UTC 21 June 2018
Winds: from the N (360 degrees) at 7 MPH (6 knots; 3.1 m/s)
Visibility: 6 or more miles (10+ km)
Ceiling: 3000 feet AGL
Clouds: broken clouds at 3000 feet AGL
Weather: NSW  (no significant weather)
Text: BECMG 2111/2112 35009KT 9999 BKN020 QNH2990INS TX33/2021Z TN22/2011Z
Forecast period: 1100 to 1500 UTC 21 June 2018
Forecast type: BECOMING: Conditions expected to become as follows by 1200 UTC 21 June 2018
Winds: from the N (350 degrees) at 10 MPH (9 knots; 4.7 m/s)
Visibility: 6 or more miles (10+ km)
Ceiling: 2000 feet AGL
Clouds: broken clouds at 2000 feet AGL
Weather: NSW  (no significant weather)

 AIRPORT MAP

 RUNWAY INFORMATION
Runway 17 Runway length 3501 ft Runway width 94 ft
Runway elevation 1379 ft Runway displaced threshold 0 ft Runway heading 180
Runway 35 Runway length 3501 ft Runway width 94 ft
Runway elevation 1364 ft Runway displaced threshold 0 ft Runway heading 360
Runway 174 Runway length 3501 ft Runway width 94 ft
Runway elevation 0 ft Runway displaced threshold 0 ft Runway heading 0
Runway 354 Runway length 3501 ft Runway width 94 ft
Runway elevation 0 ft Runway displaced threshold 0 ft Runway heading 0
Runway 17L Runway length 9000 ft Runway width 150 ft
Runway elevation 1382 ft Runway displaced threshold 0 ft Runway heading 180
Runway 35R Runway length 9000 ft Runway width 150 ft
Runway elevation 1354 ft Runway displaced threshold 0 ft Runway heading 360
Runway 17R Runway length 13440 ft Runway width 150 ft
Runway elevation 1379 ft Runway displaced threshold 0 ft Runway heading 180
Runway 35L Runway length 13440 ft Runway width 150 ft
Runway elevation 1346 ft Runway displaced threshold 0 ft Runway heading 360

 AIRPORT FREQUENCIES
Type APP Name APP Frequency 125.1 MHZ
Type ATIS Name ATIS Frequency 27.35 MHZ
Type CLD Name CLNC DEL Frequency 120.65 MHZ
Type DEP Name DEP Frequency 125.1 MHZ
Type GND Name GND Frequency 121.85 MHZ
Type PMSV Name PMSV METRO Frequency 23.98 MHZ
Type POST Name COMD POST Frequency 31.1 MHZ
Type PTD Name PTD Frequency 37.22 MHZ
Type TWR Name TWR Frequency 119.65 MHZ

 AIRPORT NEAR NAVIGATION AIDS


Neither the Department of the Air Force, nor any other component of the Department of Defense or Federal Government has approved, endorsed, or authorized this promotion, activity, or organization. Virtual United States Air Force organization is in no way affiliated with the Department of Defense, Department of the Air Force, or any other federal or government entity. Virtual United States Air Force is a group of flight simulation enthusiasts with the common interest of promoting enjoyment and cameraderie through the simulation of military operations and procedures utilizing several flight simulation platforms.

Copyright © vUSAF, LLC // 2018 All Rights Reserved